Time;durP1;ratioP1;P1;durP2;ratioP2;P2;SDS_P1;SDS_P2;PMS_P1;PMS_P2;Temp;Humidity;BMP_temperature;BMP_pressure;BME280_temperature;BME280_humidity;BME280_pressure;Samples;Min_cycle;Max_cycle;Signal;HPM_P1;HPM_P2
2023/03/25 00:00:17;;;;;;;5.47;0.90;;;9.90;99.90;;;;;;5006329;28;20598;-87
2023/03/25 00:02:46;;;;;;;6.90;0.77;;;9.90;99.90;;;;;;5011367;28;20892;-87
2023/03/25 00:05:16;;;;;;;2.63;0.60;;;9.80;99.90;;;;;;5023248;28;20210;-87
2023/03/25 00:07:43;;;;;;;13.27;1.30;;;9.80;99.90;;;;;;5010519;28;20190;-87
2023/03/25 00:10:11;;;;;;;3.07;1.67;;;9.80;99.90;;;;;;5002737;28;20214;-87
2023/03/25 00:12:37;;;;;;;8.80;1.37;;;9.80;99.90;;;;;;5003249;28;20226;-86
2023/03/25 00:15:08;;;;;;;3.17;1.20;;;9.80;99.90;;;;;;5005763;28;20317;-87
2023/03/25 00:17:35;;;;;;;4.23;1.10;;;9.80;99.90;;;;;;5022328;28;20222;-86
2023/03/25 00:20:04;;;;;;;0.73;0.30;;;9.80;99.90;;;;;;5005281;28;20194;-87
2023/03/25 00:22:30;;;;;;;0.63;0.63;;;9.80;99.90;;;;;;5005630;28;20280;-87
2023/03/25 00:24:56;;;;;;;6.33;1.13;;;9.80;99.90;;;;;;5021686;28;20246;-87
2023/03/25 00:27:21;;;;;;;4.90;1.20;;;9.80;99.90;;;;;;5022015;28;20699;-86
2023/03/25 00:29:47;;;;;;;4.77;1.20;;;9.80;99.90;;;;;;5010098;28;20234;-87
2023/03/25 00:32:14;;;;;;;0.20;0.20;;;9.80;99.90;;;;;;5002515;28;20240;-85
2023/03/25 00:34:45;;;;;;;0.60;0.60;;;9.80;99.90;;;;;;4998484;28;20210;-87
2023/03/25 00:37:16;;;;;;;0.83;0.83;;;9.80;99.90;;;;;;5000109;28;20211;-87
2023/03/25 00:39:43;;;;;;;5.63;0.47;;;9.90;99.90;;;;;;5021863;28;20329;-87
2023/03/25 00:42:12;;;;;;;4.80;1.90;;;9.90;99.90;;;;;;5005368;28;20269;-87
2023/03/25 00:44:39;;;;;;;10.13;1.50;;;9.80;99.90;;;;;;5017610;28;20250;-87
2023/03/25 00:47:05;;;;;;;3.23;1.30;;;9.80;99.90;;;;;;5021551;28;20330;-87
2023/03/25 00:49:31;;;;;;;4.00;1.40;;;9.80;99.90;;;;;;5020319;28;20193;-88
2023/03/25 00:51:56;;;;;;;2.53;0.70;;;9.80;99.90;;;;;;5018981;28;20672;-87
2023/03/25 00:54:23;;;;;;;6.57;1.40;;;9.80;99.90;;;;;;4996386;28;20223;-87
2023/03/25 00:56:51;;;;;;;12.70;1.73;;;9.70;99.90;;;;;;5022397;28;20218;-86
2023/03/25 00:59:20;;;;;;;10.67;1.50;;;9.70;99.90;;;;;;5018010;28;20692;-86
2023/03/25 01:01:45;;;;;;;2.00;1.80;;;9.70;99.90;;;;;;5003980;28;20195;-87
2023/03/25 01:04:11;;;;;;;3.57;0.90;;;9.70;99.90;;;;;;4996753;28;20240;-87
2023/03/25 01:06:42;;;;;;;0.87;0.60;;;9.70;99.90;;;;;;4998146;28;20218;-86
2023/03/25 01:09:12;;;;;;;2.10;1.47;;;9.70;99.90;;;;;;5016637;28;20218;-87
2023/03/25 01:11:39;;;;;;;8.80;1.80;;;9.70;99.90;;;;;;5003892;28;20225;-86
2023/03/25 01:14:10;;;;;;;20.13;1.33;;;9.70;99.90;;;;;;4996041;28;20223;-87
2023/03/25 01:16:36;;;;;;;1.63;1.47;;;9.70;99.90;;;;;;5002597;28;20179;-86
2023/03/25 01:19:02;;;;;;;2.37;0.60;;;9.80;99.90;;;;;;4999695;28;20508;-86
2023/03/25 01:21:27;;;;;;;10.17;0.63;;;9.80;99.90;;;;;;4988431;28;20272;-87
2023/03/25 01:23:53;;;;;;;6.43;2.73;;;9.80;99.90;;;;;;5016848;28;20230;-87
2023/03/25 01:26:19;;;;;;;0.43;0.43;;;9.80;99.90;;;;;;5011651;28;20249;-87
2023/03/25 01:28:45;;;;;;;4.53;2.47;;;9.80;99.90;;;;;;5008729;28;20317;-87
2023/03/25 01:31:13;;;;;;;1.90;0.87;;;9.80;99.90;;;;;;5004332;28;20257;-85
2023/03/25 01:33:39;;;;;;;4.30;0.70;;;9.80;99.90;;;;;;5025283;28;20218;-86
2023/03/25 01:36:11;;;;;;;5.30;0.73;;;9.80;99.90;;;;;;5014573;28;20223;-86
2023/03/25 01:38:38;;;;;;;14.07;1.90;;;9.80;99.90;;;;;;5007802;28;20214;-86
2023/03/25 01:41:05;;;;;;;2.50;1.37;;;9.80;99.90;;;;;;5016684;28;20605;-86
2023/03/25 01:43:31;;;;;;;9.87;1.70;;;9.80;99.90;;;;;;5020065;28;20223;-87
2023/03/25 01:45:58;;;;;;;7.83;3.37;;;9.80;99.90;;;;;;5015971;28;20227;-85
2023/03/25 01:48:31;;;;;;;6.87;2.00;;;9.80;99.90;;;;;;5001053;28;20246;-87
2023/03/25 01:51:13;;;;;;;5.37;1.10;;;9.80;99.90;;;;;;5021464;28;20230;-86
2023/03/25 01:53:40;;;;;;;5.07;0.93;;;9.80;99.90;;;;;;5010434;28;20570;-86
2023/03/25 01:56:09;;;;;;;5.50;1.03;;;9.80;99.90;;;;;;5003114;28;20262;-86
2023/03/25 01:58:35;;;;;;;1.97;1.87;;;9.80;99.90;;;;;;5024060;28;20204;-85
2023/03/25 02:01:02;;;;;;;8.30;2.10;;;9.80;99.90;;;;;;5019937;28;20229;-86
2023/03/25 02:03:30;;;;;;;1.07;0.93;;;9.80;99.90;;;;;;5024238;28;20226;-86
2023/03/25 02:06:08;;;;;;;7.93;1.60;;;9.80;99.90;;;;;;5009756;28;20229;-85
2023/03/25 02:08:40;;;;;;;6.33;2.43;;;9.80;99.90;;;;;;5019652;28;20222;-86
2023/03/25 02:11:07;;;;;;;1.27;0.77;;;9.80;99.90;;;;;;5022109;28;20175;-86
2023/03/25 02:13:35;;;;;;;5.03;1.90;;;9.80;99.90;;;;;;5006929;28;20186;-86
2023/03/25 02:16:16;;;;;;;2.60;0.83;;;9.80;99.90;;;;;;5020826;28;20230;-86
2023/03/25 02:18:50;;;;;;;2.67;0.87;;;9.70;99.90;;;;;;5006727;28;20250;-86
2023/03/25 02:21:53;;;;;;;6.43;1.40;;;9.70;99.90;;;;;;5021703;28;20296;-86
2023/03/25 02:24:42;;;;;;;11.83;3.47;;;9.70;99.90;;;;;;5015793;28;20231;-86
2023/03/25 02:27:32;;;;;;;1.57;1.47;;;9.70;99.90;;;;;;4993750;28;20722;-86
2023/03/25 02:30:10;;;;;;;3.33;1.57;;;9.70;99.90;;;;;;5024364;28;20280;-86
2023/03/25 02:33:04;;;;;;;3.13;1.40;;;9.70;99.90;;;;;;5018964;28;20269;-87
2023/03/25 02:35:57;;;;;;;5.43;1.20;;;9.70;99.90;;;;;;5019292;28;20230;-85
2023/03/25 02:38:26;;;;;;;2.73;1.13;;;9.70;99.90;;;;;;5007829;28;20360;-87
2023/03/25 02:41:18;;;;;;;17.27;1.07;;;9.70;99.90;;;;;;5008257;28;20236;-87
2023/03/25 02:43:55;;;;;;;10.03;1.37;;;9.70;99.90;;;;;;5009057;28;20215;-88
2023/03/25 02:46:23;;;;;;;9.17;2.73;;;9.70;99.90;;;;;;5005302;28;20221;-87
2023/03/25 02:49:01;;;;;;;10.10;1.73;;;9.70;99.90;;;;;;5016827;28;20696;-87
2023/03/25 02:51:34;;;;;;;4.07;1.97;;;9.70;99.90;;;;;;5027478;28;20222;-87
2023/03/25 02:54:06;;;;;;;19.47;1.83;;;9.70;99.90;;;;;;5019930;28;20317;-87
2023/03/25 02:56:32;;;;;;;2.53;2.37;;;9.70;99.90;;;;;;5025028;28;20214;-86
2023/03/25 02:58:59;;;;;;;6.47;2.10;;;9.70;99.90;;;;;;5010981;28;20226;-85
2023/03/25 03:01:26;;;;;;;2.40;1.63;;;9.70;99.90;;;;;;5021185;28;20195;-86
2023/03/25 03:03:53;;;;;;;4.83;2.07;;;9.70;99.90;;;;;;5017319;28;20288;-86
2023/03/25 03:06:20;;;;;;;4.50;1.63;;;9.70;99.90;;;;;;5020402;28;20245;-87
2023/03/25 03:08:48;;;;;;;7.93;1.50;;;9.70;99.90;;;;;;5024064;28;20218;-87
2023/03/25 03:11:28;;;;;;;3.57;2.40;;;9.70;99.90;;;;;;5017438;28;20922;-87
2023/03/25 03:14:03;;;;;;;7.93;1.73;;;9.70;99.90;;;;;;5016742;28;20206;-87
2023/03/25 03:16:57;;;;;;;4.63;1.70;;;9.70;99.90;;;;;;5012592;28;20765;-87
2023/03/25 03:19:22;;;;;;;3.50;1.17;;;9.70;99.90;;;;;;4996332;28;20234;-87
2023/03/25 03:22:39;;;;;;;3.63;2.03;;;9.70;99.90;;;;;;5016034;28;20596;-88
2023/03/25 03:25:20;;;;;;;2.90;0.90;;;9.70;99.90;;;;;;4952462;28;20507;-87
2023/03/25 03:27:52;;;;;;;4.03;1.17;;;9.70;99.90;;;;;;4955194;28;20711;-87
2023/03/25 03:30:50;;;;;;;1.13;0.93;;;9.70;99.90;;;;;;4997777;28;20241;-87
2023/03/25 03:33:49;;;;;;;4.60;1.07;;;9.80;99.90;;;;;;4995641;28;20921;-87
2023/03/25 03:36:23;;;;;;;10.47;2.23;;;9.80;99.90;;;;;;4995109;28;20225;-87
2023/03/25 03:38:56;;;;;;;8.27;2.23;;;9.80;99.90;;;;;;5017787;28;20218;-88
2023/03/25 03:41:25;;;;;;;3.77;1.90;;;9.80;99.90;;;;;;5006609;28;20554;-87
2023/03/25 03:43:59;;;;;;;4.43;0.70;;;9.80;99.90;;;;;;4994402;28;20321;-87
2023/03/25 03:46:37;;;;;;;12.50;2.20;;;9.80;99.90;;;;;;5016316;28;20215;-87
2023/03/25 03:49:08;;;;;;;1.40;1.30;;;9.80;99.90;;;;;;5024769;28;20673;-87
2023/03/25 03:51:44;;;;;;;4.43;1.37;;;9.80;99.90;;;;;;5021061;28;20214;-87
2023/03/25 03:54:23;;;;;;;4.13;0.90;;;9.80;99.90;;;;;;5015606;28;20687;-87
2023/03/25 03:57:03;;;;;;;2.97;2.17;;;9.80;99.90;;;;;;5017676;28;20218;-88
2023/03/25 03:59:43;;;;;;;5.30;1.93;;;9.80;99.90;;;;;;5011932;28;20222;-87
2023/03/25 04:02:41;;;;;;;2.53;2.07;;;9.80;99.90;;;;;;5010889;28;20221;-87
2023/03/25 04:05:14;;;;;;;0.40;0.37;;;9.80;99.90;;;;;;5021478;28;20203;-86
2023/03/25 04:07:55;;;;;;;7.47;1.13;;;9.70;99.90;;;;;;5021341;28;20182;-87
2023/03/25 04:10:38;;;;;;;7.00;2.07;;;9.70;99.90;;;;;;5018431;28;20252;-86
2023/03/25 04:13:10;;;;;;;1.37;1.17;;;9.70;99.90;;;;;;5001654;28;20223;-87
2023/03/25 04:15:36;;;;;;;2.57;0.53;;;9.70;99.90;;;;;;5002344;28;20557;-86
2023/03/25 04:18:02;;;;;;;3.10;1.17;;;9.70;99.90;;;;;;5005594;28;20214;-87
2023/03/25 04:20:33;;;;;;;5.07;2.77;;;9.70;99.90;;;;;;5019879;28;20249;-87
2023/03/25 04:23:00;;;;;;;29.80;2.03;;;9.70;99.90;;;;;;5005187;28;20244;-87
2023/03/25 04:25:26;;;;;;;6.87;0.60;;;9.70;99.90;;;;;;4986037;28;20191;-87
2023/03/25 04:27:57;;;;;;;4.73;2.43;;;9.80;99.90;;;;;;5018616;28;20593;-86
2023/03/25 04:30:25;;;;;;;6.33;1.27;;;9.80;99.90;;;;;;5011340;28;20967;-87
2023/03/25 04:32:51;;;;;;;6.77;2.03;;;9.80;99.90;;;;;;5021629;28;20227;-87
2023/03/25 04:35:18;;;;;;;3.83;2.10;;;9.80;99.90;;;;;;5011266;28;20696;-87
2023/03/25 04:37:45;;;;;;;3.20;1.23;;;9.80;99.90;;;;;;5023140;28;20701;-87
2023/03/25 04:40:17;;;;;;;2.80;2.30;;;9.80;99.90;;;;;;5012118;28;20219;-87
2023/03/25 04:42:46;;;;;;;1.17;0.50;;;9.80;99.90;;;;;;5030998;28;20230;-87
2023/03/25 04:45:15;;;;;;;2.77;2.07;;;9.80;99.90;;;;;;5028922;28;20214;-86
2023/03/25 04:47:45;;;;;;;5.70;1.80;;;9.80;99.90;;;;;;5031870;28;20309;-87
2023/03/25 04:50:23;;;;;;;1.87;0.87;;;9.70;99.90;;;;;;5027795;28;20206;-87
2023/03/25 04:52:56;;;;;;;8.20;0.97;;;9.70;99.90;;;;;;5026975;28;20658;-87
2023/03/25 04:55:24;;;;;;;7.20;0.90;;;9.60;99.90;;;;;;5022623;28;20240;-86
2023/03/25 04:57:51;;;;;;;6.73;2.23;;;9.60;99.90;;;;;;5022631;28;20218;-87
2023/03/25 05:00:21;;;;;;;11.93;1.73;;;9.60;99.90;;;;;;5022280;28;20332;-87
2023/03/25 05:02:49;;;;;;;3.93;1.13;;;9.50;99.90;;;;;;5012394;28;20226;-86
2023/03/25 05:05:18;;;;;;;0.30;0.30;;;9.50;99.90;;;;;;5012266;28;20540;-87
2023/03/25 05:07:49;;;;;;;2.97;0.83;;;9.50;99.90;;;;;;5012078;28;20178;-87
2023/03/25 05:10:17;;;;;;;2.10;1.03;;;9.50;99.90;;;;;;5030536;28;20219;-87
2023/03/25 05:12:43;;;;;;;1.30;0.73;;;9.50;99.90;;;;;;5014271;28;20694;-87
2023/03/25 05:15:10;;;;;;;1.60;0.80;;;9.50;99.90;;;;;;5034195;28;20222;-87
2023/03/25 05:17:37;;;;;;;2.60;1.27;;;9.50;99.90;;;;;;5031315;28;20305;-86
2023/03/25 05:20:05;;;;;;;8.80;2.33;;;9.50;99.90;;;;;;5030552;28;20252;-87
2023/03/25 05:22:31;;;;;;;1.40;0.97;;;9.50;99.90;;;;;;5032931;28;20193;-87
2023/03/25 05:24:57;;;;;;;6.87;1.17;;;9.50;99.90;;;;;;5028723;28;20226;-87
2023/03/25 05:27:23;;;;;;;4.87;1.13;;;9.60;99.90;;;;;;5019015;28;20603;-87
2023/03/25 05:29:48;;;;;;;1.33;1.20;;;9.50;99.90;;;;;;5032210;28;20579;-87
2023/03/25 05:32:17;;;;;;;1.30;0.50;;;9.50;99.90;;;;;;5008694;28;20262;-87
2023/03/25 05:34:46;;;;;;;6.77;1.03;;;9.60;99.90;;;;;;5011359;28;20197;-87
2023/03/25 05:37:13;;;;;;;1.00;0.60;;;9.60;99.90;;;;;;5012109;28;20680;-87
2023/03/25 05:39:39;;;;;;;4.20;1.17;;;9.60;99.90;;;;;;5032190;28;20223;-87
2023/03/25 05:42:05;;;;;;;0.87;0.87;;;9.60;99.90;;;;;;5020015;28;20218;-87
2023/03/25 05:44:31;;;;;;;0.73;0.73;;;9.60;99.90;;;;;;5031681;28;20238;-87
2023/03/25 05:47:00;;;;;;;0.77;0.77;;;9.60;99.90;;;;;;5008342;28;20217;-85
2023/03/25 05:49:26;;;;;;;0.90;0.83;;;9.60;99.90;;;;;;5015015;28;20198;-87
2023/03/25 05:51:54;;;;;;;12.87;2.43;;;9.60;99.90;;;;;;5030185;28;20245;-87
2023/03/25 05:54:23;;;;;;;8.53;1.77;;;9.60;99.90;;;;;;5011972;28;20225;-88
2023/03/25 05:56:49;;;;;;;12.80;0.67;;;9.60;99.90;;;;;;5016224;28;20344;-87
2023/03/25 05:59:15;;;;;;;8.00;0.97;;;9.60;99.90;;;;;;5025428;28;20739;-87
2023/03/25 06:01:44;;;;;;;37.67;3.17;;;9.70;99.90;;;;;;5007754;28;20197;-87
2023/03/25 06:04:15;;;;;;;1.77;1.37;;;9.70;99.90;;;;;;5031188;28;20227;-87
2023/03/25 06:06:41;;;;;;;9.90;1.70;;;9.70;99.90;;;;;;5026510;28;20229;-86
2023/03/25 06:09:07;;;;;;;8.40;2.60;;;9.70;99.90;;;;;;5029295;28;20218;-88
2023/03/25 06:11:36;;;;;;;2.83;1.63;;;9.70;99.90;;;;;;5030257;28;20225;-87
2023/03/25 06:14:04;;;;;;;0.67;0.40;;;9.70;99.90;;;;;;5029266;28;20190;-87
2023/03/25 06:16:30;;;;;;;2.63;2.00;;;9.70;99.90;;;;;;5015565;28;20656;-86
2023/03/25 06:19:00;;;;;;;6.47;0.77;;;9.70;99.90;;;;;;5014166;28;20699;-86
2023/03/25 06:21:31;;;;;;;2.10;0.80;;;9.70;99.90;;;;;;5025163;28;20214;-86
2023/03/25 06:23:59;;;;;;;1.80;1.30;;;9.70;99.90;;;;;;5027668;28;20238;-87
2023/03/25 06:26:25;;;;;;;2.17;1.97;;;9.70;99.90;;;;;;5026658;28;20696;-87
2023/03/25 06:28:51;;;;;;;2.33;2.17;;;9.60;99.90;;;;;;5006554;28;20234;-87
2023/03/25 06:31:22;;;;;;;0.97;0.97;;;9.70;99.90;;;;;;5010052;28;20276;-87
2023/03/25 06:33:49;;;;;;;3.07;1.47;;;9.70;99.90;;;;;;4999278;28;20309;-87
2023/03/25 06:36:17;;;;;;;7.63;1.40;;;9.70;99.90;;;;;;5014528;28;20218;-87
2023/03/25 06:38:45;;;;;;;3.83;0.63;;;9.70;99.90;;;;;;4996171;28;20219;-87
2023/03/25 06:41:12;;;;;;;1.10;1.03;;;9.60;99.90;;;;;;5011663;28;20361;-86
2023/03/25 06:43:39;;;;;;;5.43;0.83;;;9.70;99.90;;;;;;5007533;28;20219;-87
2023/03/25 06:46:06;;;;;;;3.63;0.83;;;9.70;99.90;;;;;;5009244;28;20261;-87
2023/03/25 06:48:32;;;;;;;11.23;1.90;;;9.70;99.90;;;;;;4995411;28;20277;-86
2023/03/25 06:50:58;;;;;;;0.77;0.70;;;9.70;99.90;;;;;;5015107;28;20230;-87
2023/03/25 06:53:23;;;;;;;4.10;1.07;;;9.60;99.90;;;;;;4997390;28;20226;-87
2023/03/25 06:55:49;;;;;;;8.87;3.07;;;9.70;99.90;;;;;;5010740;28;20655;-87
2023/03/25 06:58:15;;;;;;;2.10;1.50;;;9.70;99.90;;;;;;4992955;28;20306;-86
2023/03/25 07:00:41;;;;;;;3.33;2.50;;;9.60;99.90;;;;;;5010176;28;20218;-86
2023/03/25 07:03:07;;;;;;;3.17;1.67;;;9.60;99.90;;;;;;4993685;28;20317;-87
2023/03/25 07:05:33;;;;;;;4.50;0.60;;;9.60;99.90;;;;;;4978869;28;20681;-84
2023/03/25 07:07:59;;;;;;;2.23;1.00;;;9.60;99.90;;;;;;4994846;28;20261;-85
2023/03/25 07:10:25;;;;;;;10.50;1.00;;;9.60;99.90;;;;;;5010224;28;20653;-85
2023/03/25 07:12:50;;;;;;;8.60;1.30;;;9.70;99.90;;;;;;4972153;28;20620;-86
2023/03/25 07:15:16;;;;;;;0.43;0.43;;;9.80;99.90;;;;;;4995033;28;20671;-87
2023/03/25 07:17:42;;;;;;;1.33;0.97;;;9.90;99.90;;;;;;4977393;28;20260;-89
2023/03/25 07:20:09;;;;;;;1.33;1.23;;;10.00;99.90;;;;;;5007810;28;20187;-87
2023/03/25 07:22:35;;;;;;;1.23;1.13;;;10.10;99.90;;;;;;4995708;28;20191;-85
2023/03/25 07:25:00;;;;;;;0.67;0.67;;;10.10;99.90;;;;;;5008836;28;20715;-87
2023/03/25 07:27:26;;;;;;;7.43;1.20;;;10.10;99.90;;;;;;5013012;28;20712;-84
2023/03/25 07:29:52;;;;;;;0.73;0.73;;;10.20;99.90;;;;;;4990886;28;20271;-84
2023/03/25 07:32:18;;;;;;;5.40;1.40;;;10.10;99.90;;;;;;5004655;28;20401;-84
2023/03/25 07:34:44;;;;;;;3.23;1.33;;;10.20;99.90;;;;;;4992294;28;20222;-85
2023/03/25 07:37:10;;;;;;;10.97;1.00;;;10.10;99.90;;;;;;5013441;28;20263;-85
2023/03/25 07:39:35;;;;;;;0.50;0.43;;;10.00;99.90;;;;;;5003318;28;20512;-85
2023/03/25 07:42:01;;;;;;;5.20;1.70;;;9.90;99.90;;;;;;5010780;28;20223;-85
2023/03/25 07:44:27;;;;;;;7.87;2.80;;;9.80;99.90;;;;;;4990824;28;20269;-86
2023/03/25 07:46:53;;;;;;;2.57;0.97;;;9.70;99.90;;;;;;4986401;28;20198;-85
2023/03/25 07:49:19;;;;;;;2.87;1.43;;;9.60;99.90;;;;;;5008847;28;20223;-85
2023/03/25 07:51:44;;;;;;;5.57;1.70;;;9.60;99.90;;;;;;5010752;28;20214;-85
2023/03/25 07:54:11;;;;;;;3.63;1.03;;;9.60;99.90;;;;;;5010514;28;20465;-86
2023/03/25 07:56:37;;;;;;;1.07;1.07;;;9.60;99.90;;;;;;4992349;28;20225;-85
2023/03/25 07:59:03;;;;;;;1.37;0.53;;;9.60;99.90;;;;;;5011982;28;20199;-85
2023/03/25 08:01:29;;;;;;;0.57;0.47;;;9.50;99.90;;;;;;5009855;28;20191;-85
2023/03/25 08:03:55;;;;;;;6.37;1.00;;;9.60;99.90;;;;;;5010342;28;20310;-87
2023/03/25 08:06:21;;;;;;;3.23;1.73;;;9.70;99.90;;;;;;5009364;28;20688;-85
2023/03/25 08:08:47;;;;;;;0.90;0.70;;;9.90;99.90;;;;;;5009357;28;20520;-84
2023/03/25 08:11:13;;;;;;;2.37;0.70;;;10.00;99.90;;;;;;4985189;28;20187;-84
2023/03/25 08:13:39;;;;;;;1.50;1.30;;;10.00;99.90;;;;;;4991716;28;20193;-84
2023/03/25 08:16:13;;;;;;;11.23;2.10;;;10.20;99.90;;;;;;5002815;28;20306;-86
2023/03/25 08:18:39;;;;;;;1.13;0.77;;;10.60;99.90;;;;;;5004797;28;20568;-84
2023/03/25 08:21:05;;;;;;;5.10;0.63;;;11.00;99.90;;;;;;5008258;28;20277;-85
2023/03/25 08:23:35;;;;;;;1.43;0.50;;;11.30;99.90;;;;;;5008834;28;20326;-85
2023/03/25 08:26:01;;;;;;;2.10;0.63;;;11.40;99.90;;;;;;5007023;28;20278;-85
2023/03/25 08:28:27;;;;;;;4.43;1.03;;;11.50;99.90;;;;;;5014460;28;20194;-87
2023/03/25 08:30:57;;;;;;;1.10;0.97;;;11.20;99.90;;;;;;5004303;28;20707;-86
2023/03/25 08:33:33;;;;;;;1.97;0.50;;;11.10;99.90;;;;;;5004313;28;20225;-86
2023/03/25 08:36:00;;;;;;;0.47;0.43;;;11.00;99.90;;;;;;5002731;28;20254;-85
2023/03/25 08:38:30;;;;;;;5.90;1.27;;;11.10;99.90;;;;;;4999279;28;20770;-86
2023/03/25 08:40:57;;;;;;;4.00;2.00;;;11.10;99.90;;;;;;5004578;28;20648;-85
2023/03/25 08:43:25;;;;;;;4.43;0.97;;;11.10;99.90;;;;;;5019537;28;20798;-87
2023/03/25 08:45:52;;;;;;;1.63;0.33;;;11.00;99.90;;;;;;5004023;28;20675;-86
2023/03/25 08:48:18;;;;;;;7.43;1.23;;;10.90;99.90;;;;;;5021640;28;20680;-84
2023/03/25 08:50:43;;;;;;;5.33;2.60;;;11.00;99.90;;;;;;5006640;28;20228;-85
2023/03/25 08:53:09;;;;;;;14.93;0.90;;;11.00;99.90;;;;;;5000842;28;20213;-87
2023/03/25 08:55:38;;;;;;;9.30;2.30;;;11.30;99.90;;;;;;5005255;28;20201;-87
2023/03/25 08:58:06;;;;;;;0.60;0.60;;;11.20;99.90;;;;;;5003813;28;20226;-87
2023/03/25 09:00:33;;;;;;;1.53;0.93;;;10.90;99.90;;;;;;5022064;28;20768;-87
2023/03/25 09:02:59;;;;;;;1.87;1.20;;;10.70;99.90;;;;;;5004629;28;20225;-86
2023/03/25 09:05:28;;;;;;;1.20;1.10;;;10.70;99.90;;;;;;5022109;28;20470;-88
2023/03/25 09:07:54;;;;;;;10.93;1.33;;;10.70;99.90;;;;;;5023405;28;20276;-86
2023/03/25 09:10:20;;;;;;;3.87;1.10;;;10.60;99.90;;;;;;5022387;28;20268;-86
2023/03/25 09:12:46;;;;;;;3.10;1.80;;;10.70;99.90;;;;;;5002077;28;20305;-87
2023/03/25 09:15:12;;;;;;;3.50;1.77;;;10.80;99.90;;;;;;5004480;28;20233;-86
2023/03/25 09:17:38;;;;;;;6.87;1.33;;;10.80;99.90;;;;;;5004135;28;20691;-87
2023/03/25 09:20:07;;;;;;;0.47;0.47;;;10.80;99.90;;;;;;5004093;28;20399;-88
2023/03/25 09:22:34;;;;;;;4.67;1.97;;;10.70;99.90;;;;;;5020167;28;20198;-87
2023/03/25 09:25:00;;;;;;;5.00;1.30;;;10.80;99.90;;;;;;5022295;28;20218;-86
2023/03/25 09:27:26;;;;;;;1.40;1.20;;;10.90;99.90;;;;;;5021832;28;20211;-86
2023/03/25 09:29:51;;;;;;;3.20;1.23;;;11.00;99.90;;;;;;5015596;28;20326;-86
2023/03/25 09:32:18;;;;;;;0.73;0.70;;;10.90;99.90;;;;;;5016213;28;20190;-89
2023/03/25 09:34:44;;;;;;;1.23;0.97;;;10.90;99.90;;;;;;4990545;28;20222;-87
2023/03/25 09:37:10;;;;;;;4.33;1.07;;;10.90;99.90;;;;;;4995281;28;20219;-88
2023/03/25 09:39:36;;;;;;;9.10;1.37;;;10.90;99.90;;;;;;4997075;28;20570;-87
2023/03/25 09:42:20;;;;;;;5.80;1.10;;;10.90;99.90;;;;;;5010011;28;20215;-88
2023/03/25 09:45:04;;;;;;;4.57;2.57;;;11.10;99.90;;;;;;4988605;28;20261;-86
2023/03/25 09:47:32;;;;;;;4.53;1.13;;;11.00;99.90;;;;;;4990128;28;20223;-85
2023/03/25 09:50:01;;;;;;;3.70;1.63;;;11.00;99.90;;;;;;5009654;28;20641;-87
2023/03/25 09:52:53;;;;;;;1.43;0.97;;;11.10;99.90;;;;;;5009434;28;20262;-88
2023/03/25 09:55:31;;;;;;;4.10;1.27;;;10.90;99.90;;;;;;4992957;28;21140;-86
2023/03/25 09:58:14;;;;;;;7.53;1.30;;;10.90;99.90;;;;;;5015257;28;20228;-87
2023/03/25 10:00:40;;;;;;;1.37;1.27;;;11.10;99.90;;;;;;5010981;28;20291;-85
2023/03/25 10:03:25;;;;;;;7.77;2.43;;;11.20;99.90;;;;;;5013952;28;20337;-87
2023/03/25 10:06:10;;;;;;;1.53;1.43;;;11.40;99.90;;;;;;5008419;28;20823;-87
2023/03/25 10:08:48;;;;;;;3.83;0.97;;;11.70;99.90;;;;;;4991493;28;20275;-87
2023/03/25 10:11:25;;;;;;;3.37;1.00;;;11.70;99.90;;;;;;5012978;28;20183;-87
2023/03/25 10:14:05;;;;;;;4.63;1.67;;;12.00;99.90;;;;;;4995508;28;20179;-87
2023/03/25 10:16:52;;;;;;;2.73;0.87;;;12.20;99.90;;;;;;5010899;28;20219;-87
2023/03/25 10:20:00;;;;;;;1.43;1.30;;;12.10;99.90;;;;;;4996409;28;20229;-87
2023/03/25 10:22:46;;;;;;;5.60;1.27;;;12.00;99.90;;;;;;4993197;28;20624;-88
2023/03/25 10:25:17;;;;;;;195.93;34.17;;;11.90;99.90;;;;;;5016826;28;20223;-89
2023/03/25 10:27:48;;;;;;;15.37;1.60;;;12.10;99.90;;;;;;4997028;28;20234;-88
2023/03/25 10:30:20;;;;;;;4.53;1.67;;;11.90;99.90;;;;;;5023045;28;20242;-87
2023/03/25 10:32:50;;;;;;;4.17;1.50;;;11.80;99.90;;;;;;5024573;28;20735;-88
2023/03/25 10:35:39;;;;;;;8.10;1.50;;;12.00;99.90;;;;;;5007773;28;20179;-90
2023/03/25 10:38:23;;;;;;;2.63;1.03;;;12.10;99.90;;;;;;5007180;28;20218;-89
2023/03/25 10:41:17;;;;;;;1.50;1.27;;;12.20;99.90;;;;;;5007928;28;20183;-89
2023/03/25 10:43:43;;;;;;;18.10;1.50;;;12.60;99.90;;;;;;5025618;28;20692;-87
2023/03/25 10:46:25;;;;;;;2.00;0.67;;;12.70;99.90;;;;;;5007495;28;20226;-87
2023/03/25 10:48:51;;;;;;;4.77;1.10;;;13.30;99.90;;;;;;5023212;28;20218;-88
2023/03/25 10:51:23;;;;;;;6.13;1.03;;;13.60;99.90;;;;;;5007488;28;20218;-86
2023/03/25 10:53:51;;;;;;;6.93;1.83;;;13.30;99.90;;;;;;5024154;28;20273;-87
2023/03/25 10:56:28;;;;;;;1.90;1.20;;;13.10;99.90;;;;;;5024029;28;20274;-86
2023/03/25 10:58:56;;;;;;;13.43;1.63;;;13.10;99.90;;;;;;5024623;28;20195;-87
2023/03/25 11:01:37;;;;;;;1.53;1.07;;;12.90;99.90;;;;;;5025919;28;20276;-87
2023/03/25 11:04:06;;;;;;;1.70;1.10;;;13.00;99.90;;;;;;5025053;28;20245;-89
2023/03/25 11:06:41;;;;;;;0.87;0.50;;;12.50;99.90;;;;;;5008910;28;20245;-87
2023/03/25 11:09:31;;;;;;;3.60;1.23;;;12.20;99.90;;;;;;5018141;28;20226;-87
2023/03/25 11:12:01;;;;;;;2.07;1.63;;;12.10;99.90;;;;;;5010545;28;20289;-86
2023/03/25 11:14:29;;;;;;;0.93;0.90;;;12.30;99.90;;;;;;4994544;28;20245;-86
2023/03/25 11:17:04;;;;;;;9.00;1.17;;;12.30;99.90;;;;;;5005964;28;20606;-86
2023/03/25 11:19:37;;;;;;;14.83;2.27;;;12.00;99.90;;;;;;5004126;28;20686;-87
2023/03/25 11:22:18;;;;;;;1.77;0.57;;;12.10;99.90;;;;;;5022286;28;20309;-86
2023/03/25 11:24:48;;;;;;;3.20;1.80;;;12.10;99.90;;;;;;5020775;28;20233;-86
2023/03/25 11:27:27;;;;;;;5.10;1.83;;;12.00;99.90;;;;;;5021821;28;20225;-85
2023/03/25 11:30:04;;;;;;;3.13;0.80;;;12.10;99.90;;;;;;5021811;28;20237;-86
2023/03/25 11:32:37;;;;;;;4.17;1.03;;;12.10;99.90;;;;;;5005555;28;20540;-84
2023/03/25 11:35:24;;;;;;;5.30;0.90;;;11.90;99.90;;;;;;5010092;28;20182;-85
2023/03/25 11:37:59;;;;;;;4.70;0.73;;;11.90;99.90;;;;;;5022560;28;20171;-87
2023/03/25 11:40:28;;;;;;;2.93;1.40;;;11.80;99.90;;;;;;5022821;28;20615;-86
2023/03/25 11:42:57;;;;;;;5.13;0.93;;;11.90;99.90;;;;;;5010603;28;20221;-86
2023/03/25 11:45:32;;;;;;;5.30;1.93;;;12.10;99.90;;;;;;5010200;28;20221;-85
2023/03/25 11:48:01;;;;;;;1.00;0.93;;;12.20;99.90;;;;;;5005075;28;20337;-86
2023/03/25 11:50:29;;;;;;;1.50;0.73;;;12.10;99.90;;;;;;5023214;28;20372;-87
2023/03/25 11:52:59;;;;;;;1.93;1.30;;;12.00;99.90;;;;;;5023096;28;20199;-85
2023/03/25 11:55:55;;;;;;;3.10;1.00;;;11.70;99.90;;;;;;5023686;28;20283;-86
2023/03/25 11:58:27;;;;;;;5.20;1.17;;;11.60;99.90;;;;;;4996034;28;20754;-86
2023/03/25 12:01:01;;;;;;;7.17;0.93;;;11.60;99.90;;;;;;5021113;28;20571;-86
2023/03/25 12:03:33;;;;;;;4.80;1.63;;;11.60;99.90;;;;;;5023096;28;20275;-88
2023/03/25 12:06:10;;;;;;;2.23;1.57;;;11.60;99.90;;;;;;5023241;28;20218;-87
2023/03/25 12:08:57;;;;;;;57.47;9.23;;;11.70;99.90;;;;;;5023465;28;20240;-88
2023/03/25 12:11:42;;;;;;;36.57;7.70;;;11.60;99.90;;;;;;5023184;28;20670;-87
2023/03/25 12:14:18;;;;;;;5.77;1.90;;;11.70;99.90;;;;;;5022147;28;20278;-85
2023/03/25 12:16:49;;;;;;;5.93;1.80;;;11.80;99.90;;;;;;5023224;28;20179;-87
2023/03/25 12:19:33;;;;;;;145.80;33.80;;;11.80;99.90;;;;;;5021852;28;20214;-88
2023/03/25 12:22:27;;;;;;;6.47;1.13;;;11.90;99.90;;;;;;5008621;28;20249;-86
2023/03/25 12:25:37;;;;;;;8.70;0.87;;;12.20;99.90;;;;;;5019529;28;20238;-87
2023/03/25 12:28:27;;;;;;;12.30;4.13;;;11.90;99.90;;;;;;5014221;28;20548;-87
2023/03/25 12:31:10;;;;;;;4.13;2.20;;;11.60;99.90;;;;;;5008011;28;20783;-86
2023/03/25 12:33:54;;;;;;;7.10;0.87;;;11.50;99.90;;;;;;4995220;28;20309;-87
2023/03/25 12:36:32;;;;;;;4.33;1.87;;;11.30;99.90;;;;;;5011615;28;20218;-85
2023/03/25 12:39:13;;;;;;;0.57;0.47;;;11.00;99.90;;;;;;5007374;28;20245;-86
2023/03/25 12:42:21;;;;;;;4.13;1.80;;;10.50;99.90;;;;;;5010382;28;20226;-86
2023/03/25 12:44:47;;;;;;;0.53;0.50;;;10.10;99.90;;;;;;5012208;28;20238;-87
2023/03/25 12:47:35;;;;;;;4.27;0.33;;;9.90;99.90;;;;;;5013364;28;20191;-86
2023/03/25 12:50:14;;;;;;;0.40;0.40;;;9.80;99.90;;;;;;5008945;28;20185;-86
2023/03/25 12:52:55;;;;;;;0.20;0.20;;;9.80;99.90;;;;;;5009913;28;20191;-85
2023/03/25 12:55:33;;;;;;;0.73;0.60;;;9.80;99.90;;;;;;5009794;28;20206;-88
2023/03/25 12:58:11;;;;;;;0.10;0.10;;;9.70;99.90;;;;;;4993885;28;20687;-86
2023/03/25 13:00:51;;;;;;;0.20;0.20;;;9.30;99.90;;;;;;5010461;28;20221;-86
2023/03/25 13:03:50;;;;;;;3.80;0.53;;;9.30;99.90;;;;;;5011205;28;20218;-86
2023/03/25 13:06:29;;;;;;;0.77;0.40;;;9.50;99.90;;;;;;4987441;28;20230;-86
2023/03/25 13:09:22;;;;;;;1.70;0.63;;;9.50;99.90;;;;;;5007642;28;20223;-85
2023/03/25 13:12:13;;;;;;;5.90;0.90;;;9.60;99.90;;;;;;5009963;28;20245;-87
2023/03/25 13:14:54;;;;;;;20.77;0.87;;;9.60;99.90;;;;;;4997785;28;20312;-88
2023/03/25 13:18:02;;;;;;;8.63;2.80;;;9.50;99.90;;;;;;5012726;28;20207;-88